TAF LDRI 230525Z 2306/2406 06012KT 9999 SCT033
                 TX16/2311Z TN08/2405Z
           TEMPO 2306/2406 VRB06KT
    PROB30 TEMPO 2321/2406 06015G30KT=
TAF LDRI 222325Z 2300/2400 VRB02KT 9999 FEW020 SCT040
                 TX16/2311Z TN10/2323Z
           TEMPO 2306/2400 06012KT
    PROB30 TEMPO 2307/2311 06015G30KT=
TAF LDRI 221725Z 2218/2318 12005KT 9999 FEW020 BKN040
                 TX17/2312Z TN12/2304Z
    PROB30 TEMPO 2218/2300 4000 SHRA BKN013 FEW020TCU
           BECMG 2303/2305 06012KT=
TAF LDRI 221125Z 2212/2312 15008KT 9999 FEW020 BKN040
                 TX17/2212Z TN12/2304Z
    PROB30 TEMPO 2212/2221 4000 SHRA BKN013 FEW020TCU
           BECMG 2219/2221 VRB02KT
           BECMG 2302/2304 06012KT=
TAF LDRI 220525Z 2206/2306 15007KT 9999 FEW020 BKN035
                 TX16/2213Z TN12/2304Z
    PROB40 TEMPO 2206/2218 RA BKN013
    PROB30 TEMPO 2209/2215 SHRA FEW020TCU BKN030
           BECMG 2219/2221 VRB02KT
    PROB30 TEMPO 2300/2302 06010KT
           BECMG 2302/2304 06012KT=
TAF LDRI 212325Z 2200/2300 15007KT 9999 FEW020 BKN035
                 TX17/2200Z TN13/2223Z
    PROB40 TEMPO 2200/2219 RA BKN013
    PROB30 TEMPO 2209/2215 SHRA FEW020TCU BKN030
           BECMG 2219/2221 VRB02KT
          PROB30 2222/2300 06010KT=